Kezdőlap
METAR-TAF:

METAR-TAF

Repülőterek :

Spencer Municipal Airport

Spencer, Iowa, Amerikai Egyesült Államok

földrajzi szélesség: 43-09-56N, földrajzi hosszúság: 095-12-10W, magasság: 408 m

Jelenlegi meteorológiai megfigyelések

A jelentés 46 perccel ezelõtt készült, 17:53 UTC
Délkeleti szél 16 kt széllökések: 24 kt
Hőmérséklet 14°C
Páratartalom 58%
Légköri nyomás 1011 hPa
Látótávolság: 16.1 km
Derült ég

METAR: KSPW 011753Z AUTO 13016G24KT 10SM CLR 14/06 A2986 RMK AO2 PK WND 15027/1657 SLP114 T01390056 10139 20033 58014

Idő: 13:39 (18:39 UTC)


TAF: hiányzik

Meteorológiai megfigyelések és előrejelzések több, mint 4000 repülőtéren (METAR és TAF jelentéseket).

A térképen piros és sárga pontok jelzik az elérhető meteorológiai állomásokat.

Mozgassa az egeret a pont fölött, hogy megjelenjen az állomás neve.

Azután kattintson az időjárási megfigyelések és előrejelzések megtekintéséhez.

A térkép megváltoztatása: kattintson a fekete keresztel jelölt zöld gombra ráközelítéshez, a vonallal jelölt zöld gombra távolításhoz, vagy a zöld nyilakra a szomszédos térképek eléréséhez.


METAR-TAF: